sensor_id;sensor_type;location;lat;lon;timestamp;pressure;altitude;pressure_sealevel;temperature;humidity
47054;BME280;32811;52.382;5.270;2022-09-09T00:01:28;100756.53;;;14.97;100.00
47054;BME280;32811;52.382;5.270;2022-09-09T00:04:10;100738.44;;;14.89;100.00
47054;BME280;32811;52.382;5.270;2022-09-09T00:06:59;100744.44;;;14.94;100.00
47054;BME280;32811;52.382;5.270;2022-09-09T00:09:31;100738.34;;;14.93;100.00
47054;BME280;32811;52.382;5.270;2022-09-09T00:12:19;100738.41;;;14.90;100.00
47054;BME280;32811;52.382;5.270;2022-09-09T00:14:56;100739.34;;;14.86;100.00
47054;BME280;32811;52.382;5.270;2022-09-09T00:20:21;100742.84;;;14.85;100.00
47054;BME280;32811;52.382;5.270;2022-09-09T00:23:14;100734.16;;;14.86;100.00
47054;BME280;32811;52.382;5.270;2022-09-09T00:25:57;100726.41;;;14.85;100.00
47054;BME280;32811;52.382;5.270;2022-09-09T00:28:27;100716.09;;;14.77;100.00
47054;BME280;32811;52.382;5.270;2022-09-09T00:31:00;100723.88;;;14.77;100.00
47054;BME280;32811;52.382;5.270;2022-09-09T00:33:30;100722.16;;;14.78;100.00
47054;BME280;32811;52.382;5.270;2022-09-09T00:35:58;100719.47;;;14.84;100.00
47054;BME280;32811;52.382;5.270;2022-09-09T00:38:37;100722.13;;;14.79;100.00
47054;BME280;32811;52.382;5.270;2022-09-09T00:43:38;100724.75;;;14.78;100.00
47054;BME280;32811;52.382;5.270;2022-09-09T00:46:26;100729.94;;;14.78;100.00
47054;BME280;32811;52.382;5.270;2022-09-09T00:49:18;100728.25;;;14.77;100.00
47054;BME280;32811;52.382;5.270;2022-09-09T00:57:11;100729.09;;;14.76;100.00
47054;BME280;32811;52.382;5.270;2022-09-09T00:59:46;100732.59;;;14.73;100.00
47054;BME280;32811;52.382;5.270;2022-09-09T01:02:28;100730.97;;;14.67;100.00
47054;BME280;32811;52.382;5.270;2022-09-09T01:05:44;100724.88;;;14.68;100.00
47054;BME280;32811;52.382;5.270;2022-09-09T01:07:50;100735.31;;;14.65;100.00
47054;BME280;32811;52.382;5.270;2022-09-09T01:13:04;100726.69;;;14.63;100.00
47054;BME280;32811;52.382;5.270;2022-09-09T01:15:38;100732.81;;;14.61;100.00
47054;BME280;32811;52.382;5.270;2022-09-09T01:18:12;100737.09;;;14.63;100.00
47054;BME280;32811;52.382;5.270;2022-09-09T01:23:38;100723.25;;;14.63;100.00
47054;BME280;32811;52.382;5.270;2022-09-09T01:26:28;100725.84;;;14.61;100.00
47054;BME280;32811;52.382;5.270;2022-09-09T01:28:56;100728.44;;;14.61;100.00
47054;BME280;32811;52.382;5.270;2022-09-09T01:31:31;100722.50;;;14.51;100.00
47054;BME280;32811;52.382;5.270;2022-09-09T01:33:59;100721.59;;;14.54;100.00
47054;BME280;32811;52.382;5.270;2022-09-09T01:36:46;100731.13;;;14.53;100.00
47054;BME280;32811;52.382;5.270;2022-09-09T01:39:17;100725.97;;;14.50;100.00
47054;BME280;32811;52.382;5.270;2022-09-09T01:41:44;100726.03;;;14.44;100.00
47054;BME280;32811;52.382;5.270;2022-09-09T01:44:19;100689.94;;;14.24;100.00
47054;BME280;32811;52.382;5.270;2022-09-09T01:46:50;100717.53;;;14.35;100.00
47054;BME280;32811;52.382;5.270;2022-09-09T01:52:35;100713.31;;;14.27;100.00
47054;BME280;32811;52.382;5.270;2022-09-09T01:55:03;100703.88;;;14.19;100.00
47054;BME280;32811;52.382;5.270;2022-09-09T01:57:33;100710.72;;;14.24;100.00
47054;BME280;32811;52.382;5.270;2022-09-09T02:00:08;100702.22;;;14.13;100.00
47054;BME280;32811;52.382;5.270;2022-09-09T02:02:48;100701.41;;;14.08;100.00
47054;BME280;32811;52.382;5.270;2022-09-09T02:08:11;100709.31;;;13.97;100.00
47054;BME280;32811;52.382;5.270;2022-09-09T02:10:53;100705.94;;;13.92;100.00
47054;BME280;32811;52.382;5.270;2022-09-09T02:13:21;100712.88;;;13.88;100.00
47054;BME280;32811;52.382;5.270;2022-09-09T02:16:15;100708.66;;;13.81;100.00
47054;BME280;32811;52.382;5.270;2022-09-09T02:18:51;100707.75;;;13.84;100.00
47054;BME280;32811;52.382;5.270;2022-09-09T02:21:22;100703.50;;;13.78;100.00
47054;BME280;32811;52.382;5.270;2022-09-09T02:23:50;100698.38;;;13.74;100.00
47054;BME280;32811;52.382;5.270;2022-09-09T02:26:19;100704.34;;;13.79;100.00
47054;BME280;32811;52.382;5.270;2022-09-09T02:28:50;100700.06;;;13.75;100.00
47054;BME280;32811;52.382;5.270;2022-09-09T02:31:20;100697.53;;;13.73;100.00
47054;BME280;32811;52.382;5.270;2022-09-09T02:33:53;100700.16;;;13.67;100.00
47054;BME280;32811;52.382;5.270;2022-09-09T02:36:24;100693.25;;;13.66;100.00
47054;BME280;32811;52.382;5.270;2022-09-09T02:38:54;100700.97;;;13.70;100.00
47054;BME280;32811;52.382;5.270;2022-09-09T02:41:45;100680.34;;;13.61;100.00
47054;BME280;32811;52.382;5.270;2022-09-09T02:44:25;100664.03;;;13.52;100.00
47054;BME280;32811;52.382;5.270;2022-09-09T02:55:53;100704.44;;;13.71;100.00
47054;BME280;32811;52.382;5.270;2022-09-09T02:58:22;100703.63;;;13.66;100.00
47054;BME280;32811;52.382;5.270;2022-09-09T03:00:50;100687.31;;;13.55;100.00
47054;BME280;32811;52.382;5.270;2022-09-09T03:03:41;100659.84;;;13.37;100.00
47054;BME280;32811;52.382;5.270;2022-09-09T03:06:21;100680.50;;;13.46;100.00
47054;BME280;32811;52.382;5.270;2022-09-09T03:08:56;100684.81;;;13.44;100.00
47054;BME280;32811;52.382;5.270;2022-09-09T03:11:33;100664.22;;;13.33;100.00
47054;BME280;32811;52.382;5.270;2022-09-09T03:14:11;100654.75;;;13.23;100.00
47054;BME280;32811;52.382;5.270;2022-09-09T03:16:50;100659.06;;;13.27;100.00
47054;BME280;32811;52.382;5.270;2022-09-09T03:19:26;100672.81;;;13.38;100.00
47054;BME280;32811;52.382;5.270;2022-09-09T03:22:05;100667.63;;;13.37;100.00
47054;BME280;32811;52.382;5.270;2022-09-09T03:24:39;100688.31;;;13.44;100.00
47054;BME280;32811;52.382;5.270;2022-09-09T03:27:38;100690.06;;;13.41;100.00
47054;BME280;32811;52.382;5.270;2022-09-09T03:30:04;100675.44;;;13.32;100.00
47054;BME280;32811;52.382;5.270;2022-09-09T03:32:33;100687.50;;;13.36;100.00
47054;BME280;32811;52.382;5.270;2022-09-09T03:34:59;100691.88;;;13.29;100.00
47054;BME280;32811;52.382;5.270;2022-09-09T03:37:26;100684.06;;;13.36;100.00
47054;BME280;32811;52.382;5.270;2022-09-09T03:39:55;100691.00;;;13.35;100.00
47054;BME280;32811;52.382;5.270;2022-09-09T03:42:21;100680.63;;;13.34;100.00
47054;BME280;32811;52.382;5.270;2022-09-09T03:44:48;100683.22;;;13.35;100.00
47054;BME280;32811;52.382;5.270;2022-09-09T03:47:18;100674.63;;;13.28;100.00
47054;BME280;32811;52.382;5.270;2022-09-09T03:49:45;100675.47;;;13.29;100.00
47054;BME280;32811;52.382;5.270;2022-09-09T03:52:12;100688.41;;;13.32;100.00
47054;BME280;32811;52.382;5.270;2022-09-09T03:54:38;100678.09;;;13.23;100.00
47054;BME280;32811;52.382;5.270;2022-09-09T03:57:05;100669.50;;;13.16;100.00
47054;BME280;32811;52.382;5.270;2022-09-09T03:59:32;100692.81;;;13.19;100.00
47054;BME280;32811;52.382;5.270;2022-09-09T04:02:05;100682.47;;;13.16;100.00
47054;BME280;32811;52.382;5.270;2022-09-09T04:05:01;100661.88;;;12.99;100.00
47054;BME280;32811;52.382;5.270;2022-09-09T04:07:32;100660.97;;;13.05;100.00
47054;BME280;32811;52.382;5.270;2022-09-09T04:09:58;100677.38;;;13.05;100.00
47054;BME280;32811;52.382;5.270;2022-09-09T04:12:25;100680.81;;;13.07;100.00
47054;BME280;32811;52.382;5.270;2022-09-09T04:14:51;100674.81;;;13.02;100.00
47054;BME280;32811;52.382;5.270;2022-09-09T04:17:18;100678.28;;;13.01;100.00
47054;BME280;32811;52.382;5.270;2022-09-09T04:19:44;100664.47;;;12.99;100.00
47054;BME280;32811;52.382;5.270;2022-09-09T04:22:11;100666.28;;;12.93;100.00
47054;BME280;32811;52.382;5.270;2022-09-09T04:24:37;100657.66;;;12.89;100.00
47054;BME280;32811;52.382;5.270;2022-09-09T04:27:04;100664.53;;;12.93;100.00
47054;BME280;32811;52.382;5.270;2022-09-09T04:29:30;100655.06;;;12.89;100.00
47054;BME280;32811;52.382;5.270;2022-09-09T04:31:57;100661.94;;;12.92;100.00
47054;BME280;32811;52.382;5.270;2022-09-09T04:34:23;100658.47;;;12.97;100.00
47054;BME280;32811;52.382;5.270;2022-09-09T04:36:51;100667.09;;;12.96;100.00
47054;BME280;32811;52.382;5.270;2022-09-09T04:39:25;100655.03;;;12.95;100.00
47054;BME280;32811;52.382;5.270;2022-09-09T04:41:52;100661.91;;;12.96;100.00
47054;BME280;32811;52.382;5.270;2022-09-09T04:44:19;100663.66;;;12.97;100.00
47054;BME280;32811;52.382;5.270;2022-09-09T04:46:46;100660.16;;;12.97;100.00
47054;BME280;32811;52.382;5.270;2022-09-09T04:49:12;100652.47;;;12.89;100.00
47054;BME280;32811;52.382;5.270;2022-09-09T04:51:40;100645.56;;;12.88;100.00
47054;BME280;32811;52.382;5.270;2022-09-09T04:54:07;100653.28;;;12.96;100.00
47054;BME280;32811;52.382;5.270;2022-09-09T04:56:33;100651.59;;;12.93;100.00
47054;BME280;32811;52.382;5.270;2022-09-09T04:59:00;100642.97;;;12.93;100.00
47054;BME280;32811;52.382;5.270;2022-09-09T05:01:29;100651.59;;;12.92;100.00
47054;BME280;32811;52.382;5.270;2022-09-09T05:03:55;100652.44;;;12.92;100.00
47054;BME280;32811;52.382;5.270;2022-09-09T05:06:22;100649.81;;;12.97;100.00
47054;BME280;32811;52.382;5.270;2022-09-09T05:08:49;100644.63;;;12.97;100.00
47054;BME280;32811;52.382;5.270;2022-09-09T05:11:17;100632.59;;;12.91;100.00
47054;BME280;32811;52.382;5.270;2022-09-09T05:13:44;100639.50;;;12.94;100.00
47054;BME280;32811;52.382;5.270;2022-09-09T05:16:13;100655.88;;;12.94;100.00
47054;BME280;32811;52.382;5.270;2022-09-09T05:18:40;100652.41;;;12.98;100.00
47054;BME280;32811;52.382;5.270;2022-09-09T05:21:13;100649.81;;;12.97;100.00
47054;BME280;32811;52.382;5.270;2022-09-09T05:23:40;100659.34;;;12.93;100.00
47054;BME280;32811;52.382;5.270;2022-09-09T05:26:11;100658.50;;;12.93;100.00
47054;BME280;32811;52.382;5.270;2022-09-09T05:28:43;100648.16;;;12.90;100.00
47054;BME280;32811;52.382;5.270;2022-09-09T05:31:10;100657.59;;;12.98;100.00
47054;BME280;32811;52.382;5.270;2022-09-09T05:33:41;100648.97;;;12.96;100.00
47054;BME280;32811;52.382;5.270;2022-09-09T05:36:11;100653.19;;;13.05;100.00
47054;BME280;32811;52.382;5.270;2022-09-09T05:38:40;100640.28;;;13.00;100.00
47054;BME280;32811;52.382;5.270;2022-09-09T05:41:07;100646.28;;;13.07;100.00
47054;BME280;32811;52.382;5.270;2022-09-09T05:43:34;100642.78;;;13.09;100.00
47054;BME280;32811;52.382;5.270;2022-09-09T05:46:03;100653.13;;;13.14;100.00
47054;BME280;32811;52.382;5.270;2022-09-09T05:48:39;100647.03;;;13.20;100.00
47054;BME280;32811;52.382;5.270;2022-09-09T05:51:08;100653.81;;;13.35;100.00
47054;BME280;32811;52.382;5.270;2022-09-09T05:53:36;100648.56;;;13.42;100.00
47054;BME280;32811;52.382;5.270;2022-09-09T05:56:05;100649.19;;;13.63;100.00
47054;BME280;32811;52.382;5.270;2022-09-09T05:58:33;100649.72;;;13.93;100.00
47054;BME280;32811;52.382;5.270;2022-09-09T06:01:07;100642.47;;;14.18;100.00
47054;BME280;32811;52.382;5.270;2022-09-09T06:03:35;100650.97;;;14.29;100.00
47054;BME280;32811;52.382;5.270;2022-09-09T06:06:07;100653.25;;;14.50;100.00
47054;BME280;32811;52.382;5.270;2022-09-09T06:08:35;100651.19;;;14.74;100.00
47054;BME280;32811;52.382;5.270;2022-09-09T06:11:09;100661.44;;;14.83;100.00
47054;BME280;32811;52.382;5.270;2022-09-09T06:13:37;100654.16;;;15.05;100.00
47054;BME280;32811;52.382;5.270;2022-09-09T06:16:09;100645.44;;;15.08;100.00
47054;BME280;32811;52.382;5.270;2022-09-09T06:18:38;100660.44;;;15.42;100.00
47054;BME280;32811;52.382;5.270;2022-09-09T06:21:08;100661.47;;;15.33;100.00
47054;BME280;32811;52.382;5.270;2022-09-09T06:23:35;100652.97;;;15.23;100.00
47054;BME280;32811;52.382;5.270;2022-09-09T06:26:07;100654.56;;;15.32;100.00
47054;BME280;32811;52.382;5.270;2022-09-09T06:28:36;100652.16;;;15.66;100.00
47054;BME280;32811;52.382;5.270;2022-09-09T06:31:09;100644.19;;;15.75;100.00
47054;BME280;32811;52.382;5.270;2022-09-09T06:33:40;100642.31;;;15.84;100.00
47054;BME280;32811;52.382;5.270;2022-09-09T06:36:12;100641.50;;;15.80;100.00
47054;BME280;32811;52.382;5.270;2022-09-09T06:38:39;100637.59;;;15.57;100.00
47054;BME280;32811;52.382;5.270;2022-09-09T06:41:05;100633.31;;;15.53;100.00
47054;BME280;32811;52.382;5.270;2022-09-09T06:43:32;100631.66;;;15.51;100.00
47054;BME280;32811;52.382;5.270;2022-09-09T06:48:34;100630.63;;;15.58;100.00
47054;BME280;32811;52.382;5.270;2022-09-09T06:51:06;100635.94;;;15.53;100.00
47054;BME280;32811;52.382;5.270;2022-09-09T06:53:34;100624.84;;;15.45;100.00
47054;BME280;32811;52.382;5.270;2022-09-09T06:58:44;100635.44;;;15.81;100.00
47054;BME280;32811;52.382;5.270;2022-09-09T07:01:13;100624.56;;;15.59;100.00
47054;BME280;32811;52.382;5.270;2022-09-09T07:03:41;100634.63;;;15.31;100.00
47054;BME280;32811;52.382;5.270;2022-09-09T07:06:22;100631.28;;;15.24;100.00
47054;BME280;32811;52.382;5.270;2022-09-09T07:08:55;100628.09;;;15.56;100.00
47054;BME280;32811;52.382;5.270;2022-09-09T07:11:24;100628.78;;;16.08;100.00
47054;BME280;32811;52.382;5.270;2022-09-09T07:13:53;100632.44;;;16.38;100.00
47054;BME280;32811;52.382;5.270;2022-09-09T07:16:21;100635.88;;;16.00;100.00
47054;BME280;32811;52.382;5.270;2022-09-09T07:18:50;100625.97;;;15.75;100.00
47054;BME280;32811;52.382;5.270;2022-09-09T07:21:17;100628.63;;;15.74;100.00
47054;BME280;32811;52.382;5.270;2022-09-09T07:23:46;100632.19;;;15.68;100.00
47054;BME280;32811;52.382;5.270;2022-09-09T07:26:15;100633.22;;;15.60;100.00
47054;BME280;32811;52.382;5.270;2022-09-09T07:28:42;100613.06;;;15.72;100.00
47054;BME280;32811;52.382;5.270;2022-09-09T07:31:14;100630.81;;;15.94;100.00
47054;BME280;32811;52.382;5.270;2022-09-09T07:33:44;100641.72;;;16.11;100.00
47054;BME280;32811;52.382;5.270;2022-09-09T07:36:18;100639.09;;;16.13;100.00
47054;BME280;32811;52.382;5.270;2022-09-09T07:38:50;100625.94;;;16.19;100.00
47054;BME280;32811;52.382;5.270;2022-09-09T07:41:21;100594.63;;;16.21;100.00
47054;BME280;32811;52.382;5.270;2022-09-09T07:43:49;100622.88;;;16.39;100.00
47054;BME280;32811;52.382;5.270;2022-09-09T07:46:18;100635.59;;;16.53;100.00
47054;BME280;32811;52.382;5.270;2022-09-09T07:48:51;100633.69;;;16.59;100.00
47054;BME280;32811;52.382;5.270;2022-09-09T07:51:31;100640.47;;;16.67;100.00
47054;BME280;32811;52.382;5.270;2022-09-09T07:54:01;100639.63;;;16.65;100.00
47054;BME280;32811;52.382;5.270;2022-09-09T07:56:29;100643.06;;;16.67;100.00
47054;BME280;32811;52.382;5.270;2022-09-09T07:58:56;100642.22;;;16.66;100.00
47054;BME280;32811;52.382;5.270;2022-09-09T08:01:32;100634.47;;;16.63;100.00
47054;BME280;32811;52.382;5.270;2022-09-09T08:04:02;100630.75;;;16.73;100.00
47054;BME280;32811;52.382;5.270;2022-09-09T08:06:32;100652.38;;;16.77;100.00
47054;BME280;32811;52.382;5.270;2022-09-09T08:09:01;100643.81;;;16.72;100.00
47054;BME280;32811;52.382;5.270;2022-09-09T08:11:29;100647.66;;;16.57;100.00
47054;BME280;32811;52.382;5.270;2022-09-09T08:14:03;100653.50;;;16.67;100.00
47054;BME280;32811;52.382;5.270;2022-09-09T08:16:32;100652.50;;;16.72;100.00
47054;BME280;32811;52.382;5.270;2022-09-09T08:18:59;100650.03;;;16.66;100.00
47054;BME280;32811;52.382;5.270;2022-09-09T08:21:30;100651.00;;;16.62;100.00
47054;BME280;32811;52.382;5.270;2022-09-09T08:23:59;100648.75;;;16.47;100.00
47054;BME280;32811;52.382;5.270;2022-09-09T08:26:32;100660.00;;;16.49;100.00
47054;BME280;32811;52.382;5.270;2022-09-09T08:28:59;100648.63;;;16.53;100.00
47054;BME280;32811;52.382;5.270;2022-09-09T08:31:29;100642.66;;;16.48;100.00
47054;BME280;32811;52.382;5.270;2022-09-09T08:33:57;100656.28;;;16.59;100.00
47054;BME280;32811;52.382;5.270;2022-09-09T08:36:27;100650.91;;;16.65;100.00
47054;BME280;32811;52.382;5.270;2022-09-09T08:38:56;100647.34;;;16.69;100.00
47054;BME280;32811;52.382;5.270;2022-09-09T08:51:59;100668.44;;;16.58;100.00
47054;BME280;32811;52.382;5.270;2022-09-09T08:54:30;100662.41;;;16.56;100.00
47054;BME280;32811;52.382;5.270;2022-09-09T08:57:26;100658.06;;;16.57;100.00
47054;BME280;32811;52.382;5.270;2022-09-09T08:59:55;100666.56;;;16.65;100.00
47054;BME280;32811;52.382;5.270;2022-09-09T09:02:44;100662.25;;;16.64;100.00
47054;BME280;32811;52.382;5.270;2022-09-09T09:05:28;100661.50;;;16.59;100.00
47054;BME280;32811;52.382;5.270;2022-09-09T09:08:25;100671.50;;;16.77;100.00
47054;BME280;32811;52.382;5.270;2022-09-09T09:10:57;100675.56;;;16.89;100.00
47054;BME280;32811;52.382;5.270;2022-09-09T09:15:56;100665.94;;;17.26;100.00
47054;BME280;32811;52.382;5.270;2022-09-09T09:18:24;100673.59;;;17.33;100.00
47054;BME280;32811;52.382;5.270;2022-09-09T09:23:42;100670.09;;;17.00;100.00
47054;BME280;32811;52.382;5.270;2022-09-09T09:26:10;100674.81;;;16.86;100.00
47054;BME280;32811;52.382;5.270;2022-09-09T09:28:39;100679.22;;;16.82;100.00
47054;BME280;32811;52.382;5.270;2022-09-09T09:31:09;100679.31;;;16.77;100.00
47054;BME280;32811;52.382;5.270;2022-09-09T09:33:51;100686.13;;;16.85;100.00
47054;BME280;32811;52.382;5.270;2022-09-09T09:36:45;100683.38;;;16.91;100.00
47054;BME280;32811;52.382;5.270;2022-09-09T09:39:24;100671.84;;;16.99;100.00
47054;BME280;32811;52.382;5.270;2022-09-09T09:42:12;100680.75;;;16.91;100.00
47054;BME280;32811;52.382;5.270;2022-09-09T09:44:41;100676.59;;;16.84;100.00
47054;BME280;32811;52.382;5.270;2022-09-09T09:47:34;100681.84;;;16.82;100.00
47054;BME280;32811;52.382;5.270;2022-09-09T09:50:01;100684.63;;;16.73;100.00
47054;BME280;32811;52.382;5.270;2022-09-09T09:52:31;100689.03;;;16.71;100.00
47054;BME280;32811;52.382;5.270;2022-09-09T09:55:03;100687.50;;;16.60;100.00
47054;BME280;32811;52.382;5.270;2022-09-09T09:57:33;100686.75;;;16.55;100.00
47054;BME280;32811;52.382;5.270;2022-09-09T10:00:13;100679.94;;;16.50;100.00
47054;BME280;32811;52.382;5.270;2022-09-09T10:02:42;100660.25;;;16.36;100.00
47054;BME280;32811;52.382;5.270;2022-09-09T10:05:23;100686.16;;;16.44;100.00
47054;BME280;32811;52.382;5.270;2022-09-09T10:08:04;100683.53;;;16.46;100.00
47054;BME280;32811;52.382;5.270;2022-09-09T10:13:31;100663.50;;;16.48;100.00
47054;BME280;32811;52.382;5.270;2022-09-09T10:19:32;100681.66;;;16.51;100.00
47054;BME280;32811;52.382;5.270;2022-09-09T10:22:25;100673.84;;;16.51;100.00
47054;BME280;32811;52.382;5.270;2022-09-09T10:33:28;100677.09;;;16.60;100.00
47054;BME280;32811;52.382;5.270;2022-09-09T10:36:25;100678.72;;;16.65;100.00
47054;BME280;32811;52.382;5.270;2022-09-09T10:39:05;100687.97;;;16.79;100.00
47054;BME280;32811;52.382;5.270;2022-09-09T10:41:44;100677.50;;;17.17;100.00
47054;BME280;32811;52.382;5.270;2022-09-09T10:50:01;100678.50;;;18.08;100.00
47054;BME280;32811;52.382;5.270;2022-09-09T10:52:52;100665.91;;;18.22;100.00
47054;BME280;32811;52.382;5.270;2022-09-09T10:55:25;100653.78;;;18.20;100.00
47054;BME280;32811;52.382;5.270;2022-09-09T10:57:58;100663.47;;;17.87;100.00
47054;BME280;32811;52.382;5.270;2022-09-09T11:02:56;100661.53;;;17.29;100.00
47054;BME280;32811;52.382;5.270;2022-09-09T11:05:41;100664.97;;;17.30;100.00
47054;BME280;32811;52.382;5.270;2022-09-09T11:13:11;100664.34;;;18.45;100.00
47054;BME280;32811;52.382;5.270;2022-09-09T11:15:46;100665.59;;;18.33;100.00
47054;BME280;32811;52.382;5.270;2022-09-09T11:18:20;100669.56;;;18.73;100.00
47054;BME280;32811;52.382;5.270;2022-09-09T11:20:53;100661.25;;;18.32;100.00
47054;BME280;32811;52.382;5.270;2022-09-09T11:23:54;100672.53;;;18.33;100.00
47054;BME280;32811;52.382;5.270;2022-09-09T11:26:37;100650.03;;;18.57;100.00
47054;BME280;32811;52.382;5.270;2022-09-09T11:29:22;100665.44;;;18.38;100.00
47054;BME280;32811;52.382;5.270;2022-09-09T11:32:09;100657.06;;;18.55;100.00
47054;BME280;32811;52.382;5.270;2022-09-09T11:40:41;100662.03;;;18.06;100.00
47054;BME280;32811;52.382;5.270;2022-09-09T11:43:23;100652.75;;;17.96;100.00
47054;BME280;32811;52.382;5.270;2022-09-09T11:45:55;100651.41;;;17.82;100.00
47054;BME280;32811;52.382;5.270;2022-09-09T11:48:33;100660.81;;;17.88;100.00
47054;BME280;32811;52.382;5.270;2022-09-09T11:51:07;100622.97;;;17.72;100.00
47054;BME280;32811;52.382;5.270;2022-09-09T11:53:53;100646.72;;;17.94;100.00
47054;BME280;32811;52.382;5.270;2022-09-09T11:59:03;100663.31;;;18.21;100.00
47054;BME280;32811;52.382;5.270;2022-09-09T12:06:53;100645.34;;;18.40;100.00
47054;BME280;32811;52.382;5.270;2022-09-09T12:09:29;100634.28;;;18.32;100.00
47054;BME280;32811;52.382;5.270;2022-09-09T12:14:54;100638.97;;;18.20;100.00
47054;BME280;32811;52.382;5.270;2022-09-09T12:17:27;100634.03;;;18.11;100.00
47054;BME280;32811;52.382;5.270;2022-09-09T12:20:11;100639.28;;;18.10;100.00
47054;BME280;32811;52.382;5.270;2022-09-09T12:30:52;100643.69;;;18.08;100.00
47054;BME280;32811;52.382;5.270;2022-09-09T12:33:21;100656.72;;;18.09;100.00
47054;BME280;32811;52.382;5.270;2022-09-09T12:35:55;100652.25;;;18.13;100.00
47054;BME280;32811;52.382;5.270;2022-09-09T12:38:36;100650.13;;;18.25;100.00
47054;BME280;32811;52.382;5.270;2022-09-09T12:41:03;100636.59;;;18.41;100.00
47054;BME280;32811;52.382;5.270;2022-09-09T12:43:30;100640.72;;;18.48;100.00
47054;BME280;32811;52.382;5.270;2022-09-09T12:46:00;100634.13;;;18.64;100.00
47054;BME280;32811;52.382;5.270;2022-09-09T12:48:40;100635.00;;;18.63;100.00
47054;BME280;32811;52.382;5.270;2022-09-09T12:51:36;100635.84;;;18.64;100.00
47054;BME280;32811;52.382;5.270;2022-09-09T12:54:04;100632.50;;;18.60;100.00
47054;BME280;32811;52.382;5.270;2022-09-09T12:56:32;100629.94;;;18.59;100.00
47054;BME280;32811;52.382;5.270;2022-09-09T12:58:59;100638.06;;;18.78;100.00
47054;BME280;32811;52.382;5.270;2022-09-09T13:01:27;100633.09;;;18.95;100.00
47054;BME280;32811;52.382;5.270;2022-09-09T13:03:55;100611.44;;;18.65;100.00
47054;BME280;32811;52.382;5.270;2022-09-09T13:06:24;100640.63;;;18.51;100.00
47054;BME280;32811;52.382;5.270;2022-09-09T13:08:56;100636.91;;;18.30;100.00
47054;BME280;32811;52.382;5.270;2022-09-09T13:13:56;100634.63;;;17.91;100.00
47054;BME280;32811;52.382;5.270;2022-09-09T13:16:31;100633.41;;;17.72;100.00
47054;BME280;32811;52.382;5.270;2022-09-09T13:19:07;100613.13;;;17.50;100.00
47054;BME280;32811;52.382;5.270;2022-09-09T13:21:38;100634.69;;;17.57;100.00
47054;BME280;32811;52.382;5.270;2022-09-09T13:24:19;100636.00;;;17.72;100.00
47054;BME280;32811;52.382;5.270;2022-09-09T13:26:56;100631.88;;;17.96;100.00
47054;BME280;32811;52.382;5.270;2022-09-09T13:29:23;100630.88;;;18.00;100.00
47054;BME280;32811;52.382;5.270;2022-09-09T13:31:50;100626.34;;;18.07;100.00
47054;BME280;32811;52.382;5.270;2022-09-09T13:34:30;100622.13;;;18.01;100.00
47054;BME280;32811;52.382;5.270;2022-09-09T13:39:54;100618.69;;;17.38;100.00
47054;BME280;32811;52.382;5.270;2022-09-09T13:42:32;100626.03;;;17.24;100.00
47054;BME280;32811;52.382;5.270;2022-09-09T13:45:01;100625.50;;;17.11;100.00
47054;BME280;32811;52.382;5.270;2022-09-09T13:47:33;100630.88;;;17.05;100.00
47054;BME280;32811;52.382;5.270;2022-09-09T13:50:21;100629.94;;;17.07;100.00
47054;BME280;32811;52.382;5.270;2022-09-09T13:52:53;100625.28;;;17.18;100.00
47054;BME280;32811;52.382;5.270;2022-09-09T13:55:22;100615.50;;;17.27;100.00
47054;BME280;32811;52.382;5.270;2022-09-09T13:58:02;100635.59;;;17.56;100.00
47054;BME280;32811;52.382;5.270;2022-09-09T14:00:31;100619.97;;;17.54;100.00
47054;BME280;32811;52.382;5.270;2022-09-09T14:02:58;100606.09;;;17.52;100.00
47054;BME280;32811;52.382;5.270;2022-09-09T14:05:32;100613.91;;;17.54;100.00
47054;BME280;32811;52.382;5.270;2022-09-09T14:07:59;100635.72;;;17.51;100.00
47054;BME280;32811;52.382;5.270;2022-09-09T14:10:26;100637.59;;;17.46;100.00
47054;BME280;32811;52.382;5.270;2022-09-09T14:12:53;100624.72;;;17.40;100.00
47054;BME280;32811;52.382;5.270;2022-09-09T14:15:19;100635.03;;;17.45;100.00
47054;BME280;32811;52.382;5.270;2022-09-09T14:17:46;100635.88;;;17.45;100.00
47054;BME280;32811;52.382;5.270;2022-09-09T14:20:14;100618.16;;;17.25;100.00
47054;BME280;32811;52.382;5.270;2022-09-09T14:22:41;100631.00;;;17.33;100.00
47054;BME280;32811;52.382;5.270;2022-09-09T14:25:08;100625.97;;;17.25;100.00
47054;BME280;32811;52.382;5.270;2022-09-09T14:27:34;100625.03;;;17.28;100.00
47054;BME280;32811;52.382;5.270;2022-09-09T14:30:01;100617.63;;;17.12;100.00
47054;BME280;32811;52.382;5.270;2022-09-09T14:32:27;100624.47;;;17.16;100.00
47054;BME280;32811;52.382;5.270;2022-09-09T14:34:55;100613.34;;;17.10;100.00
47054;BME280;32811;52.382;5.270;2022-09-09T14:37:22;100628.84;;;17.16;100.00
47054;BME280;32811;52.382;5.270;2022-09-09T14:39:48;100624.19;;;17.27;100.00
47054;BME280;32811;52.382;5.270;2022-09-09T14:42:17;100619.56;;;17.37;100.00
47054;BME280;32811;52.382;5.270;2022-09-09T14:44:43;100617.66;;;17.43;100.00
47054;BME280;32811;52.382;5.270;2022-09-09T14:47:11;100626.97;;;17.52;100.00
47054;BME280;32811;52.382;5.270;2022-09-09T14:49:37;100623.56;;;17.50;100.00
47054;BME280;32811;52.382;5.270;2022-09-09T14:52:07;100626.16;;;17.50;100.00
47054;BME280;32811;52.382;5.270;2022-09-09T14:54:35;100626.06;;;17.55;100.00
47054;BME280;32811;52.382;5.270;2022-09-09T14:57:02;100621.03;;;17.47;100.00
47054;BME280;32811;52.382;5.270;2022-09-09T14:59:28;100624.34;;;17.54;100.00